Tiempo atmosférico en la estación meteorológica de Villarrodrigo, Jaén (872 m.)



Fecha
DESCASC
Temp. máxima en grados centígrados (hora)
DESCASC
Temp. mínima en grados centígrados (hora)
DESCASC
Temp. media en grados centígrados
DESCASC
Racha de viento máxima en m/sg (hora)
DESCASC
Velocidad máxima media en intervalos de 10 minutos(hora)
DESCASC
Precipitaciones diarias en mm
DESCASC
Precipitaciones de 00:00 a 06:00 en mm
DESCASC
Precipitaciones de 06:00 a 12:00 en mm
DESCASC
Precipitaciones de 12:00 a 18:00 en mm
DESCASC
Precipitaciones de 18:00 a 24:00 en mm
DESCASC
23-06-2019 35.7 (15:30) 17.7 (08:00) 26.7 13.61 (18:40) 6.11 (19:20) 0 0 0 0 0
22-06-2019 33 (16:20) 17.5 (07:30) 25.3 15.56 (11:40) 5.28 (20:20) 0 0 0 0 0
21-06-2019 30.3 (17:30) 14.1 (07:40) 22.2 8.89 (17:40) 3.61 (17:30) 0 0 0 0 0
20-06-2019 29.7 (16:30) 13.9 (00:00) 21.8 11.39 (17:00) 5.83 (17:50) 0 0 0 0 0
19-06-2019 28.7 (17:30) 15.1 (00:00) 21.9 8.89 (17:50) 5 (17:10) 0 0 0 0 0
18-06-2019 30.7 (16:20) 17.2 (00:00) 24 12.5 (16:00) 6.39 (14:30) 0 0 0 0 0
17-06-2019 32.2 (18:30) 14.2 (00:00) 23.2 8.61 (14:30) 4.17 (17:40) 0 0 0 0 0
16-06-2019 28.7 (17:50) 15.9 (00:00) 22.3 10.83 (10:20) 5.83 (10:20) 0 0 0 0 0
15-06-2019 27.7 (18:50) 9.6 (00:00) 18.7 10 (00:10) 4.17 (19:00) 0 0 0 0 0
14-06-2019 24.4 (15:50) 15.5 (00:00) 19.9 13.61 (13:50) 6.67 (19:00) 0 0 0 0 0
13-06-2019 29.3 (17:30) 14 (00:00) 21.6 10.28 (00:50) 6.11 (00:40) 0 0 0 0 0
12-06-2019 26.5 (18:20) 12.8 (00:00) 19.7 11.11 (21:30) 5.56 (21:30) 0 0 0 0 0
11-06-2019 24.9 (15:40) 11.3 (00:00) 18.1 12.22 (19:00) 5.56 (11:50) 0 0 0 0 0
10-06-2019 26.5 (17:30) 11.7 (00:00) 19.1 9.44 (14:40) 4.17 (19:50) 0 0 0 0 0
09-06-2019 26.4 (18:40) 16.6 (00:00) 21.5 10 (18:10) 4.72 (19:10) 0 0 0 0 0
08-06-2019 27.8 (15:50) 14.1 (00:00) 20.9 13.89 (19:30) 6.67 (20:30) 0 0 0 0 0
07-06-2019 24.7 (18:10) 11.7 (00:00) 18.2 10.83 (05:40) 5.28 (08:30) 0 0 0 0 0
06-06-2019 26.4 (17:10) 9.9 (00:00) 18.1 12.22 (18:10) 6.11 (19:00) 0 0 0 0 0
05-06-2019 22.4 (17:20) 13.7 (00:00) 18 14.17 (07:50) 7.78 (14:30) 0 0 0 0 0
04-06-2019 29.5 (16:20) 17.9 (00:00) 23.7 13.61 (18:30) 6.11 (17:00) 0 0 0 0 0
03-06-2019 33 (17:50) 19 (00:00) 26 8.89 (18:40) 3.89 (18:40) 0 0 0 0 0
02-06-2019 34.4 (17:20) 15.9 (00:00) 25.2 10.56 (21:00) 5.83 (20:30) 0 0 0 0 0
01-06-2019 28.9 (14:50) 15.6 (00:00) 22.3 10 (19:20) 5 (12:10) 0 0 0 0 0
31-05-2019 27.4 (17:00) 17.1 (00:00) 22.3 12.22 (18:30) 6.39 (12:40) 0 0 0 0 0
30-05-2019 26.6 (16:40) 13.6 (00:00) 20.1 9.72 (17:50) 5 (17:20) 0 0 0 0 0
29-05-2019 27.7 (16:40) 12.2 (00:00) 20 13.89 (19:20) 5.28 (14:20) 0 0 0 0 0
28-05-2019 30 (17:50) 14.4 (00:00) 22.2 11.67 (23:20) 5.56 (19:10) 0 0 0 0 0
27-05-2019 29.6 (17:00) 13.2 (00:00) 21.4 10.28 (15:00) 5 (17:00) 0 0 0 0 0
26-05-2019 26.4 (17:10) 11.7 (00:00) 19 8.89 (16:40) 4.17 (20:20) 0 0 0 0 0

Gráficas

Temp. máximas Temp. mínimas Temp. medias Precipitaciones Rachas de viento máximas Velocidades máximas media en intervalos de 10 minutos

Datos horarios

Fecha y hora oficial Temperatura (ºC) Velocidad del viento (km/h) Dirección del viento Racha (km/h) Dirección de racha Precipitación (mm) Presión (hPa) Tendencia (hPa) Humedad (%)
2019-06-24 23:00:00 25.6 4 Sur 20 Sudoeste 0 918.5 1.9 32
2019-06-24 22:00:00 27.2 10 Sudoeste 31 Sudoeste 0 917.7 1.5 28
2019-06-24 21:00:00 29.1 16 Sudoeste 31 Sudoeste 0 917.1 0.8 24
2019-06-24 20:00:00 31.4 11 Sudoeste 29 Sudoeste 0 916.6 0.3 21
2019-06-24 19:00:00 32.5 12 Sudoeste 30 Oeste 0 916.2 -0.4 19
2019-06-24 18:00:00 32.9 12 Sudoeste 29 Oeste 0 916.3 -0.5 20
2019-06-24 17:00:00 33 8 Sudoeste 28 Oeste 0 916.3 -0.9 18
2019-06-24 16:00:00 31.4 12 Oeste 28 Oeste 0 916.6 -1 19
2019-06-24 15:00:00 31.3 6 Sudoeste 24 Oeste 0 916.8 -1.1 21
2019-06-24 14:00:00 29.8 6 Oeste 20 Sudoeste 0 917.2 -0.7 26
2019-06-24 13:00:00 29 6 Oeste 15 Oeste 0 917.6 -0.4 27
2019-06-24 12:00:00 28.1 7 Noroeste 17 Oeste 0 917.9 -0.1 30
2019-06-24 11:00:00 26.2 3 Oeste 13 Sudoeste 0 917.9 0 35
2019-06-24 10:00:00 24.9 3 Oeste 9 Oeste 0 918 0.5 36
2019-06-24 09:00:00 23.2 0 Calma 6 Sudeste 0 918 0.8 36
2019-06-24 08:00:00 18.8 6 Sudeste 13 Sudeste 0 917.9 0.6 41
2019-06-24 07:00:00 18.1 3 Este 14 Sudeste 0 917.5 -0.2 36
2019-06-24 06:00:00 19.4 4 Sudeste 17 Sudeste 0 917.2 -0.4 31
2019-06-24 05:00:00 20.4 9 Sudeste 17 Sudeste 0 917.3 -0.6 28
2019-06-24 04:00:00 21.3 3 Sudeste 15 Este 0 917.7 -0.1 27
2019-06-24 03:00:00 22.2 9 Este 26 Sudeste 0 917.6 0.3 25
2019-06-24 02:00:00 22.9 13 Sudeste 33 Sudeste 0 917.9 1 24
2019-06-24 01:00:00 23.4 16 Sudeste 33 Sudeste 0 917.8 2.2 25
2019-06-24 00:00:00 24.4 11 Sudeste 27 Sudeste 0 917.3 2.5 26
2019-06-23 23:00:00 26.1 18 Sudeste 36 Sudeste 0 916.9 2.5 23
2019-06-23 22:00:00 27.3 14 Sudeste 34 Este 0 915.6 1.3 22
2019-06-23 21:00:00 28.9 21 Este 40 Este 0 914.8 0 20
2019-06-23 20:00:00 31.2 20 Este 44 Este 0 914.4 -0.7 18
2019-06-23 19:00:00 32.8 20 Sudeste 49 Este 0 914.3 -1.1 15
2019-06-23 18:00:00 33.2 17 Este 41 Este 0 914.8 -1.1 14
2019-06-23 17:00:00 33.6 13 Este 39 Sudeste 0 915.1 -1.5 14
2019-06-23 16:00:00 33.6 10 Este 33 Este 0 915.4 -1.8 14
2019-06-23 15:00:00 34.3 5 Norte 27 Noroeste 0 915.9 -1.6 14
2019-06-23 14:00:00 34.2 8 Noroeste 21 Oeste 0 916.6 -1.2 15
2019-06-23 13:00:00 31 5 Noroeste 17 Oeste 0 917.2 -1.1 20
2019-06-23 12:00:00 28.7 6 Oeste 18 Oeste 0 917.5 -1 26
2019-06-23 11:00:00 26.5 5 Noroeste 13 Oeste 0 917.8 -0.6 31
2019-06-23 10:00:00 25.2 4 Noroeste 8 Noroeste 0 918.3 0.5 34
2019-06-23 09:00:00 22.6 3 Sudoeste 7 Sudeste 0 918.5 0.7 40
2019-06-23 08:00:00 17.7 6 Este 10 Este 0 918.4 0.7 57
2019-06-23 07:00:00 18.2 3 Este 14 Sudeste 0 917.8 0 53
2019-06-23 06:00:00 19.8 3 Sudeste 14 Sudeste 0 917.8 0 47
2019-06-23 05:00:00 19.5 2 Este 8 Sudeste 0 917.7 0 54
2019-06-23 04:00:00 20.7 3 Sudeste 9 Sudoeste 0 917.8 0 51
2019-06-23 03:00:00 21.7 2 Norte 11 Nordeste 0 917.8 0.2 48
2019-06-23 02:00:00 22.7 2 Nordeste 10 Este 0 917.7 0.3 44
2019-06-23 01:00:00 23.5 4 Este 14 Este 0 917.8 1.1 43
2019-06-23 00:00:00 23.9 7 Este 27 Sudeste 0 917.6 1.5 43
2019-06-22 23:00:00 25.5 14 Sudeste 27 Sudeste 0 917.4 1.4 38
2019-06-22 22:00:00 25.7 14 Este 32 Sudeste 0 916.7 0.9 39
2019-06-22 21:00:00 27.5 17 Este 37 Este 0 916.1 -0.1 36
2019-06-22 20:00:00 29.9 17 Sudeste 28 Sudeste 0 916 -0.7 28
2019-06-22 19:00:00 32.4 8 Oeste 30 Oeste 0 915.8 -1.3 17
2019-06-22 18:00:00 32.6 12 Noroeste 26 Sudoeste 0 916.2 -1.5 17
2019-06-22 17:00:00 32.5 12 Oeste 30 Oeste 0 916.7 -1.5 18
2019-06-22 16:00:00 32.2 14 Oeste 31 Oeste 0 917.1 -1.5 19
2019-06-22 15:00:00 30.4 15 Sudoeste 30 Oeste 0 917.7 -1.2 20
2019-06-22 14:00:00 29.3 14 Oeste 31 Oeste 0 918.2 -0.8 21
2019-06-22 13:00:00 29.5 9 Noroeste 24 Sudoeste 0 918.6 -0.8 27
2019-06-22 12:00:00 27.5 6 Sur 56 Sudoeste 0 918.9 -0.2 32
2019-06-22 11:00:00 25.9 7 Sur 22 Sudoeste 0 919 0.3 36
2019-06-22 10:00:00 24.3 7 Sudeste 20 Sudeste 0 919.4 1.1 42
2019-06-22 09:00:00 22 8 Este 19 Este 0 919.1 1 51
2019-06-22 08:00:00 18.9 6 Sudeste 17 Sudeste 0 918.7 0.5 55
2019-06-22 07:00:00 17.9 10 Sudeste 16 Sudeste 0 918.3 -0.2 44
2019-06-22 06:00:00 18.1 3 Sur 12 Sudeste 0 918.1 -0.6 42
2019-06-22 05:00:00 19.8 6 Este 12 Nordeste 0 918.2 -0.7 38
2019-06-22 04:00:00 18.7 4 Sudeste 8 Este 0 918.5 -0.5 37
2019-06-22 03:00:00 19.9 3 Este 13 Sudeste 0 918.7 -0.1 32
2019-06-22 02:00:00 21.1 9 Sudeste 14 Sudeste 0 918.9 0.4 26
2019-06-22 01:00:00 21.1 9 Sudeste 15 Sudeste 0 919 1.6 27
2019-06-22 00:00:00 21.4 8 Sudeste 12 Sudeste 0 918.8 1.8 26
2019-06-21 23:00:00 22.9 5 Sudeste 15 Sudeste 0 918.5 1.9 23
2019-06-21 22:00:00 24.6 6 Sudeste 22 Sudoeste 0 917.4 1 21
2019-06-21 21:00:00 27.9 8 Sudoeste 22 Sudoeste 0 917 0.3 15
2019-06-21 20:00:00 29.4 11 Oeste 31 Sudoeste 0 916.6 -0.3 13
2019-06-21 19:00:00 29.6 6 Sudoeste 25 Sudoeste 0 916.4 -0.8 13
2019-06-21 18:00:00 29.9 13 Oeste 32 Sudoeste 0 916.7 -0.9 14
2019-06-21 17:00:00 29.7 10 Noroeste 26 Sudoeste 0 916.9 -1 15
2019-06-21 16:00:00 29.2 10 Oeste 31 Oeste 0 917.2 -1.1 16
2019-06-21 15:00:00 27.4 6 Sur 25 Sudoeste 0 917.6 -0.9 22
2019-06-21 14:00:00 27.2 6 Norte 24 Oeste 0 917.9 -0.7 24
2019-06-21 13:00:00 25.7 8 Oeste 57 Sudoeste 0 918.3 -0.4 30
2019-06-21 12:00:00 24.4 4 Sudoeste 18 Oeste 0 918.5 -0.1 33
2019-06-21 11:00:00 22.5 5 Oeste 14 Oeste 0 918.6 0.1 44
2019-06-21 10:00:00 20.7 4 Oeste 14 Oeste 0 918.7 0.6 48
2019-06-21 09:00:00 19 2 Norte 6 Noroeste 0 918.6 0.8 56
2019-06-21 08:00:00 14.6 0 Calma 13 Sur 0 918.5 0.9 71
2019-06-21 07:00:00 15 0 Calma 8 Sudeste 0 918.1 0.6 66
2019-06-21 06:00:00 15.3 5 Sudeste 9 Sudeste 0 917.8 0.1 65
2019-06-21 05:00:00 16.7 0 Calma 12 Sudeste 0 917.6 -0.1 57
2019-06-21 04:00:00 17.4 4 Sudeste 11 Sudeste 0 917.5 -0.4 54
2019-06-21 03:00:00 18.2 4 Sudeste 9 Sudeste 0 917.7 0 46
2019-06-21 02:00:00 18.3 10 Sudeste 18 Sudeste 0 917.7 0.5 45
2019-06-21 01:00:00 19.4 5 Sur 14 Sur 0 917.9 1.8 41
2019-06-21 00:00:00 20.6 5 Sur 15 Sur 0 917.7 2.1 36
2019-06-20 23:00:00 22.3 6 Sur 27 Sudoeste 0 917.2 1.7 31
2019-06-20 22:00:00 23.8 5 Sur 28 Sudoeste 0 916.1 0.9 27
2019-06-20 21:00:00 25.9 15 Sudoeste 34 Sudoeste 0 915.6 0.4 22
2019-06-20 20:00:00 27.3 18 Sudoeste 38 Oeste 0 915.5 0.3 22
2019-06-20 19:00:00 28.3 18 Oeste 39 Sudoeste 0 915.2 -0.5 19
2019-06-20 18:00:00 29.1 17 Oeste 38 Oeste 0 915.2 -0.9 15
2019-06-20 17:00:00 29.2 17 Oeste -- -- 0 915.2 -1.7 15
2019-06-20 16:00:00 29.4 13 Oeste 36 Oeste 0 915.7 -1.4 17
2019-06-20 15:00:00 29 14 Oeste 28 Oeste 0 916.1 -1.3 19
2019-06-20 14:00:00 27.4 9 Oeste 29 Oeste 0 916.9 -0.6 18
2019-06-20 13:00:00 26.7 12 Oeste 28 Noroeste 0 917.1 -0.7 31
2019-06-20 12:00:00 24.5 5 Sudoeste 51 Sudoeste 0 917.4 -0.5 38
2019-06-20 11:00:00 22.7 4 Noroeste 14 Oeste 0 917.5 -0.2 45
2019-06-20 10:00:00 21 6 Oeste 12 Oeste 0 917.8 0.1 52
2019-06-20 09:00:00 19.1 2 Sudoeste 10 Oeste 0 917.9 0.1 54
2019-06-20 08:00:00 14.4 3 Sudeste 13 Sur 0 917.7 -0.2 67
2019-06-20 07:00:00 14 5 Sudeste 14 Sudeste 0 917.7 -0.3 64
2019-06-20 06:00:00 15 6 Sudeste 13 Sudeste 0 917.8 -0.3 54
2019-06-20 05:00:00 15.9 5 Sudeste 13 Este 0 917.9 -0.4 49
2019-06-20 04:00:00 16.8 5 Nordeste 13 Sudeste 0 918 -0.5 45
2019-06-20 03:00:00 18.5 7 Sudeste 12 Sudeste 0 918.1 -0.3 39
2019-06-20 02:00:00 19.6 3 Sudeste 14 Sudeste 0 918.3 0.3 36
2019-06-20 01:00:00 20 6 Sudeste 14 Este 0 918.5 1.1 33
2019-06-20 00:00:00 20.2 10 Sudeste 17 Sudeste 0 918.4 1 29
2019-06-19 23:00:00 21.8 3 Sur 24 Sudoeste 0 918 0.8 26
2019-06-19 22:00:00 23.8 6 Sudoeste 21 Sudoeste 0 917.4 0.2 23
2019-06-19 21:00:00 26.4 13 Sudoeste 24 Sudoeste 0 917.4 -0.1 18
2019-06-19 20:00:00 27.8 9 Sudoeste 28 Oeste 0 917.2 -0.5 15
2019-06-19 19:00:00 28.3 13 Sudoeste 31 Sudoeste 0 917.2 -0.9 15
2019-06-19 18:00:00 28.2 16 Oeste 32 Sudoeste 0 917.5 -1.1 18
2019-06-19 17:00:00 28.5 14 Oeste 32 Oeste 0 917.7 -1.4 20
2019-06-19 16:00:00 27.7 17 Oeste 32 Sudoeste 0 918.1 -1.1 24
2019-06-19 15:00:00 27.1 13 Sudoeste 26 Sudoeste 0 918.6 -0.5 20
2019-06-19 14:00:00 25.9 10 Sudoeste 29 Sudoeste 0 919.1 -0.3 24
2019-06-19 13:00:00 24.3 14 Oeste 28 Oeste 0 919.2 -0.3 35
2019-06-19 12:00:00 22.6 11 Oeste 23 Oeste 0 919.1 -0.3 43
2019-06-19 11:00:00 21.3 7 Oeste 19 Sudoeste 0 919.4 -0.1 51
2019-06-19 10:00:00 20.1 8 Oeste 15 Oeste 0 919.5 0.1 57
2019-06-19 09:00:00 19.3 3 Oeste 13 Oeste 0 919.4 0.3 58
2019-06-19 08:00:00 15.2 2 Sudeste 7 Norte 0 919.5 0.5 71
2019-06-19 07:00:00 15.5 2 Este 7 Sudeste 0 919.4 0.7 69
2019-06-19 06:00:00 15.5 2 Este 13 Sur 0 919.1 0.1 66
2019-06-19 05:00:00 16.3 4 Sudeste 15 Oeste 0 919 -0.2 58
2019-06-19 04:00:00 17.4 3 Sudeste 8 Este 0 918.7 -0.8 50
2019-06-19 03:00:00 18.6 3 Sudoeste 11 Sur 0 919 -0.5 44
2019-06-19 02:00:00 19.4 6 Sur 16 Sur 0 919.2 0.3 34
2019-06-19 01:00:00 20.2 7 Sudeste 14 Sur 0 919.5 1.3 27
2019-06-19 00:00:00 21.3 7 Sudeste 28 Sudoeste 0 919.5 1.5 25
2019-06-18 23:00:00 22.6 14 Sudoeste 28 Sudoeste 0 918.9 1.3 24
2019-06-18 22:00:00 24 10 Sudoeste 28 Oeste 0 918.2 1 20
2019-06-18 21:00:00 26.2 16 Sudoeste 34 Oeste 0 918 0.9 19
2019-06-18 20:00:00 27.7 19 Oeste 39 Oeste 0 917.6 0.5 19
2019-06-18 19:00:00 28.8 19 Oeste 42 Oeste 0 917.2 -0.2 18
2019-06-18 18:00:00 29.8 19 Oeste 44 Sudoeste 0 917.1 -0.7 13
2019-06-18 17:00:00 30.1 21 Sudoeste 44 Oeste 0 917.1 -1.1 13
2019-06-18 16:00:00 30.2 22 Oeste 45 Oeste 0 917.4 -1.1 12
2019-06-18 15:00:00 29.5 17 Sudoeste 41 Sudoeste 0 917.8 -0.8 12
2019-06-18 14:00:00 28.8 -- -- -- -- 0 918.2 -0.5 15
2019-06-18 13:00:00 28.6 15 Oeste 32 Oeste 0 918.5 -0.4 18
2019-06-18 12:00:00 28.5 9 Noroeste 18 Noroeste 0 918.6 -0.3 23
2019-06-18 11:00:00 25.5 3 Noroeste 12 Noroeste 0 918.7 -0.2 28
2019-06-18 10:00:00 24.3 4 Oeste 12 Noroeste 0 918.9 0.2 31
2019-06-18 09:00:00 22 0 Calma 5 Noroeste 0 918.9 0.2 34
2019-06-18 08:00:00 17.2 2 Este 7 Sudoeste 0 918.9 0.4 45
2019-06-18 07:00:00 17.6 2 Sudoeste 7 Sur 0 918.7 0 41
2019-06-18 06:00:00 18.7 4 Sur 14 Sudeste 0 918.7 -0.2 38
2019-06-18 05:00:00 18.8 7 Sudeste 15 Sudeste 0 918.5 -0.4 37
2019-06-18 04:00:00 19.1 0 Calma 14 Norte 0 918.7 -0.3 34
2019-06-18 03:00:00 20.6 2 Nordeste 16 Sudoeste 0 918.9 0.1 30
2019-06-18 02:00:00 21.3 8 Sudeste 14 Sudeste 0 918.9 0.3 29
2019-06-18 01:00:00 21.7 9 Sudeste 14 Sudeste 0 919 1 29
2019-06-18 00:00:00 22.9 6 Sudeste 19 Este 0 918.8 1.4 26
2019-06-17 23:00:00 23.2 10 Sudeste 17 Sudeste 0 918.6 1.6 27
2019-06-17 22:00:00 25.7 5 Sur 30 Sudeste 0 918 1.2 23
2019-06-17 21:00:00 27.5 13 Sudeste 25 Sudeste 0 917.4 0.3 21
2019-06-17 20:00:00 30.3 11 Sudoeste 30 Sudoeste 0 917 -0.6 15
2019-06-17 19:00:00 31.1 7 Oeste 28 Sudoeste 0 916.8 -1.5 15
2019-06-17 18:00:00 31.9 7 Noroeste 30 Noroeste 0 917.1 -1.8 15
2019-06-17 17:00:00 31.1 10 Oeste 27 Oeste 0 917.6 -1.8 15
2019-06-17 16:00:00 30.9 13 Oeste 28 Oeste 0 918.3 -1.7 15
2019-06-17 15:00:00 29.6 13 Oeste 31 Oeste 0 918.9 -1.7 18
2019-06-17 14:00:00 29.2 13 Oeste 26 Oeste 0 919.4 -1.6 19
2019-06-17 13:00:00 28.3 5 Noroeste 16 Noroeste 0 920 -1.2 21
2019-06-17 12:00:00 25.8 4 Sudoeste 16 Noroeste 0 920.6 -0.7 24
2019-06-17 11:00:00 24.5 5 Noroeste 18 Noroeste 0 921 -0.3 26
2019-06-17 10:00:00 22.5 5 Oeste 11 Oeste 0 921.2 0.1 31
2019-06-17 09:00:00 20.7 2 Noroeste 6 Sur 0 921.3 0.3 37
2019-06-17 08:00:00 14.7 0 Calma 14 Sudeste 0 921.3 0.3 54
2019-06-17 07:00:00 14.6 8 Sudeste 14 Este 0 921.1 -0.1 53
2019-06-17 06:00:00 15.7 0 Calma 10 Sudeste 0 921 -0.2 48
2019-06-17 05:00:00 17.2 8 Este 14 Sudeste 0 921 -0.2 44
2019-06-17 04:00:00 18.2 5 Sudeste 16 Sur 0 921.2 -0.1 39
2019-06-17 03:00:00 18.7 5 Sudeste 15 Sudeste 0 921.2 0 32
2019-06-17 02:00:00 18.9 10 Sudeste 15 Sudeste 0 921.2 0.4 31
2019-06-17 01:00:00 19.7 6 Este 19 Sudeste 0 921.3 1.1 29
2019-06-17 00:00:00 20.1 9 Sudeste 14 Sudeste 0 921.2 1.5 30
2019-06-16 23:00:00 20.9 8 Sudeste 13 Sudeste 0 920.8 1.3 29
2019-06-16 22:00:00 23 6 Sudeste 17 Sur 0 920.2 0.8 25
2019-06-16 21:00:00 25.7 8 Sudoeste 23 Oeste 0 919.7 0.3 19
2019-06-16 20:00:00 27.1 10 Sudoeste 23 Sudoeste 0 919.5 -0.2 14
2019-06-16 19:00:00 27.5 9 Oeste 27 Oeste 0 919.4 -0.8 12
2019-06-16 18:00:00 28 5 Sudoeste 24 Oeste 0 919.4 -0.8 12
2019-06-16 17:00:00 27.7 13 Sudoeste 30 Oeste 0 919.7 -0.9 12
2019-06-16 16:00:00 27.1 14 Oeste 33 Oeste 0 920.2 -0.6 12
2019-06-16 15:00:00 27.2 14 Oeste 29 Oeste 0 920.2 -0.6 13
2019-06-16 14:00:00 27.6 11 Sur 28 Sur 0 920.6 0 12
2019-06-16 13:00:00 26.7 9 Sudeste 32 Sudeste 0 920.8 0.2 15
2019-06-16 12:00:00 25.8 12 Sudeste 36 Sudeste 0 920.8 0.6 17
2019-06-16 11:00:00 23.2 20 Sudeste 39 Sudeste 0 920.6 0.6 20
2019-06-16 10:00:00 23 16 Este 34 Sudeste 0 920.6 1 22
2019-06-16 09:00:00 21.5 16 Sudeste 37 Este 0 920.2 0.8 24
2019-06-16 08:00:00 20.1 16 Sudeste 35 Este 0 920 0.4 29
2019-06-16 07:00:00 19.1 14 Sudeste 27 Sudeste 0 919.6 -0.5 33
2019-06-16 06:00:00 16.4 5 Sudoeste 9 Sudoeste 0 919.4 -1.5 37
2019-06-16 05:00:00 17 4 Sudoeste 11 Sudeste 0 919.6 -1.7 33
2019-06-16 04:00:00 17.7 5 Este 13 Sudeste 0 920.1 -1.5 31
2019-06-16 03:00:00 18 7 Este 19 Sudeste 0 920.9 -0.7 25
2019-06-16 02:00:00 18.8 12 Sudeste 21 Sudeste 0 921.3 0.1 19
2019-06-16 01:00:00 18 12 Sudeste 19 Este 0 921.6 1 18
2019-06-16 00:00:00 18.3 12 Sudeste 19 Sudeste 0 921.6 1.5 18
2019-06-15 23:00:00 19.6 9 Sudeste 15 Sudeste 0 921.2 1.4 16
2019-06-15 22:00:00 21.1 9 Sudeste 14 Sudoeste 0 920.6 1 14
2019-06-15 21:00:00 25.1 6 Sudoeste 24 Sudoeste 0 920.1 0.2 10
2019-06-15 20:00:00 26.5 9 Sudoeste 33 Sudoeste 0 919.8 -0.4 10
2019-06-15 19:00:00 26.8 15 Oeste 32 Oeste 0 919.6 -0.8 12
2019-06-15 18:00:00 27.1 10 Oeste 32 Sudoeste 0 919.9 -1 11
2019-06-15 17:00:00 26.5 9 Sudoeste 28 Oeste 0 920.2 -1.1 10
2019-06-15 16:00:00 25.8 9 Sudoeste 28 Oeste 0 920.4 -1.3 12
2019-06-15 15:00:00 25.2 10 Noroeste 26 Noroeste 0 920.9 -1 17
2019-06-15 14:00:00 22.5 6 Sudoeste 21 Oeste 0 921.3 -0.6 24
2019-06-15 13:00:00 20.8 6 Sudoeste 26 Oeste 0 921.7 -0.4 28
2019-06-15 12:00:00 19.5 8 Oeste 18 Noroeste 0 921.9 0.1 32
2019-06-15 11:00:00 18.7 8 Noroeste 14 Noroeste 0 921.9 0.6 35
2019-06-15 10:00:00 16.7 5 Oeste 11 Noroeste 0 922.1 0.9 44
2019-06-15 09:00:00 14.5 2 Sur 6 Este 0 921.8 1.1 55
2019-06-15 08:00:00 10 3 Este 14 Sudeste 0 921.3 0.7 70
2019-06-15 07:00:00 9.9 6 Sudeste 10 Sudeste 0 921.2 0.5 67
2019-06-15 06:00:00 10.9 0 Calma 6 Noroeste 0 920.7 -0.2 65
2019-06-15 05:00:00 11.9 0 Calma 8 Sudeste 0 920.6 0 60
2019-06-15 04:00:00 12.6 4 Sudeste 9 Sudoeste 0 920.7 0.4 55
2019-06-15 03:00:00 13.7 3 Oeste 22 Sudoeste 0 920.9 0.7 50
2019-06-15 02:00:00 15.1 10 Oeste 25 Sudoeste 0 920.6 0.8 44
2019-06-15 01:00:00 15.8 9 Sudoeste 36 Sudoeste 0 920.3 1.4 39
2019-06-15 00:00:00 16.3 11 Sudoeste 31 Sudoeste 0 920.2 1.9 34
2019-06-14 23:00:00 17.1 8 Sur 25 Sudoeste 0 919.8 2.3 30
2019-06-14 22:00:00 18.3 17 Sudoeste 35 Sudoeste 0 918.9 1.8 29
2019-06-14 21:00:00 20.6 14 Sudoeste 38 Oeste 0 918.3 1.3 25
2019-06-14 20:00:00 21.9 20 Oeste 40 Sudoeste 0 917.5 0.5 25
2019-06-14 19:00:00 22.8 24 Sudoeste 43 Oeste 0 917.1 0.1 26
2019-06-14 18:00:00 23.7 18 Oeste 41 Sudoeste 0 917 0 28
2019-06-14 17:00:00 23.4 16 Oeste 39 Sudoeste 0 917 -0.2 33
2019-06-14 16:00:00 24.2 19 Sudoeste -- -- 0 917 -0.1 28
2019-06-14 15:00:00 23.5 14 Sudoeste 40 Oeste 0 917 0.1 26
2019-06-14 14:00:00 22 22 Oeste 49 Sudoeste 0 917.2 0.7 22
2019-06-14 13:00:00 19.9 21 Oeste 37 Oeste 0 917.1 0.5 47
2019-06-14 12:00:00 19.5 16 Sudoeste 35 Sudoeste 0 916.9 0.6 48
2019-06-14 11:00:00 19.1 17 Sudoeste 34 Oeste 0 916.5 0.6 47
2019-06-14 10:00:00 18.9 12 Sudoeste 25 Oeste 0 916.6 1.1 35
2019-06-14 09:00:00 18.2 5 Sudoeste 13 Sudoeste 0 916.3 1 34
2019-06-14 08:00:00 15.8 9 Sudoeste 27 Sudoeste 0 915.9 1.5 42
2019-06-14 07:00:00 16.3 6 Sudoeste 27 Sur 0 915.5 0.9 49
2019-06-14 06:00:00 16.9 11 Sudoeste 36 Sur 0 915.3 0.7 45
2019-06-14 05:00:00 17.4 15 Sudoeste 35 Sudoeste 0 914.4 0.1 43
2019-06-14 04:00:00 18.9 8 Sudoeste 27 Sur 0 914.6 0.4 33
2019-06-14 03:00:00 19.9 8 Sudoeste 25 Sudoeste 0 914.6 0.5 39
2019-06-14 02:00:00 20.9 6 Sur 28 Sudoeste 0 914.3 0.8 39
2019-06-14 01:00:00 21.5 7 Sudoeste 22 Sur 0 914.2 2.1 40
2019-06-14 00:00:00 22 8 Sur 24 Sudoeste 0 914.1 2.6 38
2019-06-13 23:00:00 22.8 8 Sudoeste 25 Sudoeste 0 913.5 2.3 37
2019-06-13 22:00:00 23.7 9 Oeste 27 Oeste 0 912.1 0.9 34
2019-06-13 21:00:00 25.8 13 Oeste 31 Oeste 0 911.5 0.2 29
2019-06-13 20:00:00 27.5 10 Oeste 24 Oeste 0 911.2 -0.7 25
2019-06-13 19:00:00 28.6 11 Oeste 28 Oeste 0 911.2 -1 24
2019-06-13 18:00:00 28.3 5 Noroeste 50 Sudoeste 0 911.3 -1.5 25
2019-06-13 17:00:00 27.6 7 Noroeste 28 Oeste 0 911.9 -1.3 26
2019-06-13 16:00:00 27.8 9 Oeste 24 Oeste 0 912.2 -1.8 27
2019-06-13 15:00:00 26.1 5 Noroeste 23 Oeste 0 912.8 -1.6 30
2019-06-13 14:00:00 25 8 Noroeste 20 Noroeste 0 913.2 -1.2 33
2019-06-13 13:00:00 22.8 7 Noroeste -- -- 0 914 -0.4 36
2019-06-13 12:00:00 20.1 10 Este 19 Sudeste 0 914.4 -0.4 43
2019-06-13 11:00:00 20 6 Noroeste 15 Noroeste 0 914.4 0.1 43
2019-06-13 10:00:00 17.6 3 Este 20 Este 0 914.4 0.1 52
2019-06-13 09:00:00 16.1 9 Este 23 Sudeste 0 914.8 1 60
2019-06-13 08:00:00 14.2 5 Sudeste 17 Este 0 914.3 0.6 69
2019-06-13 07:00:00 14.1 2 Sudeste 18 Este 0 914.3 0.7 68
2019-06-13 06:00:00 14.5 8 Sudeste 16 Este 0 913.8 -0.1 67
2019-06-13 05:00:00 16.3 4 Sur 21 Este 0 913.7 -0.3 58
2019-06-13 04:00:00 16 5 Nordeste 13 Nordeste 0 913.6 -0.4 60
2019-06-13 03:00:00 16.5 4 Nordeste 27 Sudeste 0 913.9 -0.2 59
2019-06-13 02:00:00 17.8 15 Sudeste 36 Sudeste 0 914 0.2 53
2019-06-13 01:00:00 18.3 21 Sudeste 37 Sudeste 0 914 0.7 50
2019-06-13 00:00:00 18.9 18 Sudeste 37 Sudeste 0 914.1 1.2 47
2019-06-12 23:00:00 19.1 18 Sudeste 35 Este 0 913.8 1.2 46
2019-06-12 22:00:00 19.5 16 Este 40 Este 0 913.3 0.5 44
2019-06-12 21:00:00 21.6 19 Este 33 Este 0 912.9 -0.4 35
2019-06-12 20:00:00 25.1 13 Oeste 27 Oeste 0 912.6 -1.3 20
2019-06-12 19:00:00 25.8 14 Oeste 31 Oeste 0 912.8 -1.3 20
2019-06-12 18:00:00 26 10 Oeste 29 Noroeste 0 913.3 -1.2 19
2019-06-12 17:00:00 23.6 9 Sur 28 Sudoeste 0 913.9 -1.3 23
2019-06-12 16:00:00 24.8 11 Oeste 28 Oeste 0 914.1 -1.3 22
2019-06-12 15:00:00 23.8 9 Sudoeste 34 Oeste 0 914.5 -1.3 24
2019-06-12 14:00:00 22.8 11 Noroeste 30 Noroeste 0 915.2 -0.7 30
2019-06-12 13:00:00 22.2 6 Sudoeste 19 Sudeste 0 915.4 -0.3 30
2019-06-12 12:00:00 20.3 7 Sur 21 Sudeste 0 915.8 0.2 40
2019-06-12 11:00:00 19.4 9 Sur 27 Sudeste 0 915.9 0.9 42
2019-06-12 10:00:00 17.7 14 Sudeste 31 Sudeste 0 915.7 0.7 48
2019-06-12 09:00:00 16.2 16 Sudeste 33 Sudeste 0 915.6 0.9 50
2019-06-12 08:00:00 13.9 12 Sudeste 30 Sudeste 0 915 0.5 56
2019-06-12 07:00:00 12.9 10 Este 23 Este 0 915 0.5 61
2019-06-12 06:00:00 13.4 6 Este 28 Este 0 914.7 0 56
2019-06-12 05:00:00 13.5 13 Este 28 Este 0 914.5 -0.7 59
2019-06-12 04:00:00 13.9 9 Este 34 Este 0 914.5 -1 57
2019-06-12 03:00:00 14.2 13 Este 29 Este 0 914.7 -1 60
2019-06-12 02:00:00 14.5 4 Este 26 Este 0 915.2 -0.4 59
2019-06-12 01:00:00 15.2 8 Este 17 Este 0 915.5 0.6 56
2019-06-12 00:00:00 16.5 6 Este 18 Este 0 915.7 1.4 31
2019-06-11 23:00:00 17.2 3 Nordeste 18 Noroeste 0 915.6 1.9 30
2019-06-11 22:00:00 18.1 4 Norte 17 Nordeste 0 914.9 1.7 30
2019-06-11 21:00:00 19.5 4 Norte 28 Norte 0 914.3 1.6 29
2019-06-11 20:00:00 21.3 8 Norte 35 Noroeste 0 913.7 1.1 28
2019-06-11 19:00:00 21.8 15 Norte 44 Norte 0 913.2 0.6 27
2019-06-11 18:00:00 23.8 13 Norte 31 Noroeste 0 912.7 -0.1 24
2019-06-11 17:00:00 23.2 9 Oeste 28 Oeste 0 912.6 -0.6 26
2019-06-11 16:00:00 24.1 11 Oeste 39 Oeste 0 912.6 -0.9 24
2019-06-11 15:00:00 23.9 12 Sudoeste 39 Oeste 0 912.8 -0.9 25
2019-06-11 14:00:00 22.3 11 Sudoeste 35 Oeste 0 913.2 -0.3 28
2019-06-11 13:00:00 21.8 13 Sudoeste -- -- 0 913.5 -0.7 28
2019-06-11 12:00:00 19.9 15 Oeste 33 Sudoeste 0 913.7 -0.4 35
2019-06-11 11:00:00 18.9 13 Oeste 21 Oeste 0 913.5 -1.2 41
2019-06-11 10:00:00 18 4 Oeste 17 Oeste 0 914.2 -0.3 47
2019-06-11 09:00:00 16.6 3 Norte 8 Norte 0 914.1 -0.4 53
2019-06-11 08:00:00 11.6 2 Este 6 Nordeste 0 914.7 -0.3 68
2019-06-11 07:00:00 11.5 4 Este 11 Sudeste 0 914.5 -0.8 68
2019-06-11 06:00:00 12.3 3 Este 9 Sudeste 0 914.5 -1.4 63
2019-06-11 05:00:00 13.3 2 Norte 13 Sudoeste 0 915 -1.3 58
2019-06-11 04:00:00 14.3 0 Calma 8 Oeste 0 915.3 -1.1 51
2019-06-11 03:00:00 16.1 3 Norte 27 Sudoeste 0 915.9 -0.5 41
2019-06-11 02:00:00 17.4 8 Sudoeste 27 Sudoeste 0 916.3 -0.1 33
2019-06-11 01:00:00 18.1 8 Sudeste 12 Sudeste 0 916.4 0.4 29
2019-06-11 00:00:00 20.1 6 Sudoeste 24 Sudoeste 0 916.4 0.8 25
2019-06-10 23:00:00 21 9 Sudoeste 26 Sudoeste 0 916.4 0.9 25
2019-06-10 22:00:00 21.8 10 Sudoeste 26 Sur 0 916 0.2 25
2019-06-10 21:00:00 23.7 15 Sudoeste 54 Sudoeste 0 915.6 -0.6 19
2019-06-10 20:00:00 25.4 10 Oeste 30 Sudoeste 0 915.5 -1.2 17
2019-06-10 19:00:00 26.2 11 Oeste 32 Sudoeste 0 915.8 -1.2 16
2019-06-10 18:00:00 26.3 13 Oeste 33 Sudoeste 0 916.2 -1.7 16
2019-06-10 17:00:00 25.7 11 Oeste 34 Sudoeste 0 916.7 -1.6 15
2019-06-10 16:00:00 25.1 10 Noroeste 30 Oeste 0 917 -1.8 19
2019-06-10 15:00:00 23.9 9 Sudoeste 34 Sudoeste 0 917.9 -1.2 22
2019-06-10 14:00:00 23.2 9 Oeste 25 Sudoeste 0 918.3 -0.7 24
2019-06-10 13:00:00 22.4 10 Sudoeste 69 Sudeste 0 918.8 -0.5 25
2019-06-10 12:00:00 21.4 8 Sudoeste 23 Oeste 0 919.1 -0.5 28
2019-06-10 11:00:00 19.9 4 Sudoeste 17 Oeste 0 919 -0.1 34
2019-06-10 10:00:00 18.3 8 Oeste 14 Oeste 0 919.3 0.5 37
2019-06-10 09:00:00 17.4 4 Oeste 9 Noroeste 0 919.6 0.6 42
2019-06-10 08:00:00 12 3 Sudeste 8 Sudeste 0 919.1 -0.2 56
2019-06-10 07:00:00 11.9 6 Sudeste 12 Sudeste 0 918.8 -0.8 55
2019-06-10 06:00:00 12.5 6 Sudeste 12 Sudeste 0 919 -0.8 52
2019-06-10 05:00:00 13.7 0 Calma 14 Oeste 0 919.3 -0.4 48
2019-06-10 04:00:00 14.7 5 Sudeste 12 Oeste 0 919.6 -0.2 44
2019-06-10 03:00:00 16.6 8 Oeste 27 Sudoeste 0 919.8 0.4 38
2019-06-10 02:00:00 18 12 Sudoeste 26 Sudoeste 0 919.7 0.6 32
2019-06-10 01:00:00 19.3 4 Oeste 18 Oeste 0 919.8 1.3 27
2019-06-10 00:00:00 20 9 Oeste 24 Sudoeste 0 919.4 1.5 35
2019-06-09 23:00:00 20.7 8 Sudoeste 21 Sudoeste 0 919.1 1.2 33
2019-06-09 22:00:00 21.7 10 Sudoeste 27 Sudoeste 0 918.5 0.7 31
2019-06-09 21:00:00 23.4 14 Sudoeste 30 Sudoeste 0 917.9 0 23
2019-06-09 20:00:00 25 15 Sudoeste 33 Sur 0 917.9 -0.2 20
2019-06-09 19:00:00 25.8 13 Sudoeste 36 Sudoeste 0 917.8 -0.9 21
2019-06-09 18:00:00 26 10 Sudoeste 32 Oeste 0 917.9 -1.3 22
2019-06-09 17:00:00 26 11 Sudoeste 60 Sudoeste 0 918.1 -1.5 24
2019-06-09 16:00:00 25.4 11 Sudoeste -- -- 0 918.7 -1.4 24
2019-06-09 15:00:00 24.3 12 Sudoeste 29 Sudoeste 0 919.2 -1.2 25
2019-06-09 14:00:00 23.7 10 Oeste 26 Oeste 0 919.6 -1.1 23
2019-06-09 13:00:00 21.6 12 Oeste 24 Oeste 0 920.1 -0.9 28
2019-06-09 12:00:00 19.5 4 Oeste 16 Oeste 0 920.4 -0.4 39
2019-06-09 11:00:00 18.1 7 Oeste 17 Oeste 0 920.7 0.4 45
2019-06-09 10:00:00 17.8 7 Oeste 17 Oeste 0 921 0.7 45
2019-06-09 09:00:00 17.1 4 Oeste 14 Sudoeste 0 920.8 0.5 48
2019-06-09 08:00:00 16.6 6 Sudoeste 19 Sudoeste 0 920.3 0.3 49
2019-06-09 07:00:00 16.7 4 Sudoeste 20 Sudoeste 0 920.3 -0.4 50
2019-06-09 06:00:00 17.4 9 Oeste 24 Sudoeste 0 920.3 -0.2 49
2019-06-09 05:00:00 18 5 Sur 24 Sudoeste 0 920 -0.7 47
2019-06-09 04:00:00 18.8 8 Sur 23 Sudoeste 0 920.7 -0.2 45
2019-06-09 03:00:00 19.4 9 Sur 21 Sur 0 920.5 -0.1 41
2019-06-09 02:00:00 19.8 9 Sur 19 Sudeste 0 920.7 0.4 44
2019-06-09 01:00:00 20.6 8 Sudeste 20 Sudeste 0 920.9 1.5 42
2019-06-09 00:00:00 20.7 10 Sudeste 26 Sudeste 0 920.6 1.8 45
2019-06-08 23:00:00 21.1 16 Sudeste 37 Sudeste 0 920.3 1.9 45
2019-06-08 22:00:00 21.5 22 Sudeste 42 Sudeste 0 919.4 1.1 45
2019-06-08 21:00:00 22.8 23 Sudeste 45 Sudeste 0 918.8 0.1 41
2019-06-08 20:00:00 24.8 22 Sudeste 50 Sudeste 0 918.4 -0.6 34
2019-06-08 19:00:00 26.1 23 Este 41 Sudeste 0 918.3 -1.1 29
2019-06-08 18:00:00 27.3 15 Este 39 Este 0 918.7 -1.3 25
2019-06-08 17:00:00 26.9 17 Este 45 Este 0 919 -1.5 25
2019-06-08 16:00:00 27 17 Este 39 Este 0 919.4 -1.4 24
2019-06-08 15:00:00 26.4 -- -- -- -- 0 920 -0.7 25
2019-06-08 14:00:00 25.8 18 Sudeste 38 Sudeste 0 920.5 -0.4 25
2019-06-08 13:00:00 24.8 21 Sudeste 44 Este 0 920.8 -0.1 25
2019-06-08 12:00:00 23.6 22 Sudeste 44 Este 0 920.7 0.1 25
2019-06-08 11:00:00 22.4 18 Sudeste 44 Este 0 920.9 0.5 27
2019-06-08 10:00:00 21.3 17 Este 42 Este 0 920.9 0.6 31
2019-06-08 09:00:00 20.8 6 Este 21 Sudeste 0 920.6 0.6 32
2019-06-08 08:00:00 14.3 3 Norte 12 Oeste 0 920.4 0.4 43
2019-06-08 07:00:00 14.3 4 Norte 9 Oeste 0 920.3 0.2 37
2019-06-08 06:00:00 14.6 2 Noroeste 9 Sudoeste 0 920 -0.3 33
2019-06-08 05:00:00 14.7 3 Noroeste 10 Oeste 0 920 -0.6 30
2019-06-08 04:00:00 15.3 4 Oeste 9 Noroeste 0 920.1 -0.9 28
2019-06-08 03:00:00 15.7 2 Oeste 9 Sudeste 0 920.3 -1 26
2019-06-08 02:00:00 15.9 3 Sur 12 Sudeste 0 920.6 -0.3 27
2019-06-08 01:00:00 16.1 6 Sudeste 13 Sudeste 0 921 0.8 25
2019-06-08 00:00:00 16.5 9 Sudeste 16 Sudeste 0 921.3 1.8 22
2019-06-07 23:00:00 16.9 4 Sur 22 Sudeste 0 920.9 1.7 22
2019-06-07 22:00:00 18.1 12 Sudeste 19 Sudeste 0 920.2 1.2 20
2019-06-07 21:00:00 22.6 10 Oeste 23 Oeste 0 919.5 0.5 12
2019-06-07 20:00:00 24.2 7 Oeste 23 Sudoeste 0 919.2 0 15
2019-06-07 19:00:00 24.1 12 Oeste 27 Oeste 0 919 -0.2 21
2019-06-07 18:00:00 24.1 11 Oeste 31 Oeste 0 919 -0.3 23
2019-06-07 17:00:00 23.7 12 Oeste 31 Noroeste 0 919.2 -0.3 27
2019-06-07 16:00:00 22.2 12 Oeste 32 Oeste 0 919.2 -0.3 32
2019-06-07 15:00:00 21.2 9 Oeste 33 Oeste 0 919.3 0.2 38
2019-06-07 14:00:00 19.6 14 Sudoeste 31 Sudoeste 0 919.5 0.7 42
2019-06-07 13:00:00 17.8 13 Sudoeste 27 Sudoeste 0 919.5 1.2 53
2019-06-07 12:00:00 16.5 9 Sudoeste 30 Oeste 0 919.1 1.2 60
2019-06-07 11:00:00 13.2 15 Oeste 32 Sudoeste 0 918.8 1.8 74
2019-06-07 10:00:00 13 12 Sudoeste 27 Sudoeste 0 918.3 1.9 70
2019-06-07 09:00:00 12 9 Sudoeste 29 Oeste 0 917.9 1.6 75
2019-06-07 08:00:00 12.6 9 Oeste 21 Oeste 0 917 1.2 67
2019-06-07 07:00:00 11.8 5 Sur 35 Sudoeste 0 916.4 0.6 70
2019-06-07 06:00:00 12.1 13 Sudoeste 39 Sudoeste 0 916.3 0.7 67
2019-06-07 05:00:00 13 11 Sur 24 Sur 0 915.8 0.4 56
2019-06-07 04:00:00 13.8 9 Sur 34 Sur 0 915.8 0.7 44
2019-06-07 03:00:00 14.3 13 Sudoeste 35 Sudoeste 0 915.6 0.8 38
2019-06-07 02:00:00 15.7 8 Sudoeste 35 Sudoeste 0 915.4 1.1 23
2019-06-07 01:00:00 17.1 9 Sudoeste 33 Sudoeste 0 915.1 1.3 24
2019-06-07 00:00:00 18.5 12 Sudoeste 29 Sudoeste 0 914.8 1.7 24
2019-06-06 23:00:00 19.4 13 Sudoeste 34 Sudoeste 0 914.3 1.4 22
2019-06-06 22:00:00 20.5 13 Sudoeste 32 Sudoeste 0 913.8 1.3 21
2019-06-06 21:00:00 22.6 14 Oeste 35 Sudoeste 0 913.1 0.3 19
2019-06-06 20:00:00 24.2 19 Sudoeste 41 Oeste 0 912.9 -0.6 18
2019-06-06 19:00:00 25.4 22 Oeste 44 Sudoeste 0 912.5 -1.5 15
2019-06-06 18:00:00 26.3 14 Sudoeste 34 Sudoeste 0 912.8 -1.7 13
2019-06-06 17:00:00 25.8 19 Oeste 38 Oeste 0 913.5 -1.6 13
2019-06-06 16:00:00 26.2 14 Oeste 34 Oeste 0 914 -1.6 14
2019-06-06 15:00:00 25 16 Oeste 35 Oeste 0 914.5 -1.5 16
2019-06-06 14:00:00 23.6 11 Oeste 33 Sudoeste 0 915.1 -1.4 18
2019-06-06 13:00:00 22.5 5 Sudoeste 22 Sudoeste 0 915.6 -1 22
2019-06-06 12:00:00 22 9 Noroeste 22 Noroeste 0 916 -1 23
2019-06-06 11:00:00 20 5 Noroeste 14 Oeste 0 916.5 -0.3 24
2019-06-06 10:00:00 18.1 3 Sudoeste 8 Sudoeste 0 916.6 -0.2 27
2019-06-06 09:00:00 16.4 0 Calma 5 Sudeste 0 917 0.2 31
2019-06-06 08:00:00 10.4 6 Sudeste 18 Sudeste 0 916.8 0 48
2019-06-06 07:00:00 10.1 10 Sudeste 15 Sudeste 0 916.8 -0.1 45
2019-06-06 06:00:00 10.1 9 Sudeste 19 Sudeste 0 916.8 -0.2 45
2019-06-06 05:00:00 10.7 8 Sudeste 16 Sudeste 0 916.8 -0.4 42
2019-06-06 04:00:00 11.1 11 Sudeste 18 Sudeste 0 916.9 -0.6 40
2019-06-06 03:00:00 11.7 10 Sudeste 16 Este 0 917 -0.4 38
2019-06-06 02:00:00 12.1 10 Sudeste 17 Sur 0 917.2 0.2 37
2019-06-06 01:00:00 13 9 Sudeste 15 Sudeste 0 917.5 1.1 34
2019-06-06 00:00:00 13.7 6 Sudeste 12 Sudeste 0 917.4 1.4 32
2019-06-05 23:00:00 14.8 6 Sudeste 13 Sudeste 0 917 1.4 28
2019-06-05 22:00:00 16.5 3 Sur 21 Oeste 0 916.4 1.1 25
2019-06-05 21:00:00 18.6 13 Oeste 36 Oeste 0 916 0.6 22
2019-06-05 20:00:00 20.9 17 Oeste 37 Oeste 0 915.6 0.3 19
2019-06-05 19:00:00 19.8 18 Oeste 37 Oeste 0 915.3 -0.4 20
2019-06-05 18:00:00 20.8 17 Oeste 41 Oeste 0 915.4 -0.4 18
2019-06-05 17:00:00 21.2 17 Oeste 42 Oeste 0 915.3 -0.5 18
2019-06-05 16:00:00 21 20 Oeste -- -- 0 915.7 0 20
2019-06-05 15:00:00 20.8 18 Oeste 51 Oeste 0 915.8 0.1 20
2019-06-05 14:00:00 20.1 22 Oeste 50 Oeste 0 915.8 0.2 22
2019-06-05 13:00:00 19.1 21 Oeste 50 Noroeste 0 915.7 0.5 24
2019-06-05 12:00:00 17 23 Oeste 46 Oeste 0 915.7 1.1 29
2019-06-05 11:00:00 16.1 24 Oeste 42 Oeste 0 915.6 1.8 29
2019-06-05 10:00:00 15 24 Oeste 41 Oeste 0 915.2 2 42
2019-06-05 09:00:00 13.9 19 Oeste 46 Sudoeste 0 914.6 1.7 53
2019-06-05 08:00:00 14.6 22 Sudoeste 51 Sudoeste 0 913.8 0.9 61
2019-06-05 07:00:00 14.9 14 Oeste 36 Noroeste 0 913.2 0 61
2019-06-05 06:00:00 15.7 14 Sudoeste 36 Sudoeste 0 912.9 -0.5 70
2019-06-05 05:00:00 16.2 12 Sudoeste 37 Sudoeste 0 912.9 -0.7 71
2019-06-05 04:00:00 16.8 15 Sudoeste 37 Sudoeste 0 913.2 -0.4 71
2019-06-05 03:00:00 17.7 21 Sudoeste 39 Sudoeste 0 913.4 -0.2 62
2019-06-05 02:00:00 19.1 11 Sudoeste 35 Sudoeste 0 913.6 0.3 54
2019-06-05 01:00:00 20.6 9 Sudoeste 33 Sudoeste 0 913.6 0.8 46
2019-06-05 00:00:00 22 8 Sudoeste 29 Sudoeste 0 913.6 0.9 37
2019-06-04 23:00:00 23.2 10 Sur 26 Sur 0 913.3 0.3 30
2019-06-04 22:00:00 24.1 9 Sudoeste 32 Sudoeste 0 912.8 -0.3 26
2019-06-04 21:00:00 25.5 14 Oeste 40 Sudoeste 0 912.7 -0.8 23
2019-06-04 20:00:00 27.6 20 Oeste 48 Sudoeste 0 913 -1.2 20
2019-06-04 19:00:00 28.6 19 Sudoeste 49 Sudoeste 0 913.1 -1.8 14
2019-06-04 18:00:00 29.1 15 Sudoeste 46 Sudoeste 0 913.5 -2 13
2019-06-04 17:00:00 29 22 Sudoeste 38 Oeste 0 914.2 -2.1 13
2019-06-04 16:00:00 29.1 17 Sudoeste 43 Oeste 0 914.9 -1.9 11
2019-06-04 15:00:00 28 18 Sudoeste 39 Sudoeste 0 915.5 -1.3 14
2019-06-04 14:00:00 27.7 20 Sudoeste 42 Sudoeste 0 916.3 -0.7 13
2019-06-04 13:00:00 27.2 14 Sudoeste 35 Oeste 0 916.8 -0.5 13
2019-06-04 12:00:00 26.4 16 Oeste 32 Oeste 0 916.8 -0.5 19
2019-06-04 11:00:00 25.1 7 Sur 22 Sudoeste 0 917 -0.3 22
2019-06-04 10:00:00 23.5 8 Sur 18 Sur 0 917.3 -0.1 23
2019-06-04 09:00:00 22.9 4 Sudoeste 19 Sur 0 917.3 -0.1 24
2019-06-04 08:00:00 18.2 9 Sudeste 18 Sudeste 0 917.3 -0.4 33
2019-06-04 07:00:00 18.1 9 Sudeste 23 Sudeste 0 917.4 -0.3 33
2019-06-04 06:00:00 19.3 9 Sudeste 21 Sudeste 0 917.4 -0.6 31
2019-06-04 05:00:00 20.1 6 Sur 18 Sudoeste 0 917.7 -0.6 29
2019-06-04 04:00:00 21.6 7 Sur 24 Sur 0 917.7 -0.7 25
2019-06-04 03:00:00 22.8 6 Sur 20 Sur 0 918 -0.5 20
2019-06-04 02:00:00 23.4 9 Sur 18 Sudeste 0 918.3 0.1 23
2019-06-04 01:00:00 23.8 9 Sudeste 18 Sur 0 918.4 0.8 22
2019-06-04 00:00:00 23.3 12 Sudeste 20 Sudeste 0 918.5 1 24
2019-06-03 23:00:00 24.5 10 Sudeste 19 Sudeste 0 918.2 0.7 21
2019-06-03 22:00:00 26.2 11 Sudeste 16 Sudeste 0 917.6 -0.1 15
2019-06-03 21:00:00 30.1 8 Sudoeste 31 Sudoeste 0 917.5 -0.7 11
2019-06-03 20:00:00 31.8 9 Sudoeste 27 Sudoeste 0 917.5 -1 10
2019-06-03 19:00:00 32.7 11 Sudoeste 32 Oeste 0 917.7 -1.3 10
2019-06-03 18:00:00 32.6 10 Sudoeste 28 Oeste 0 918.2 -1.6 11
2019-06-03 17:00:00 32.5 12 Sudoeste 31 Sudoeste 0 918.5 -1.9 11
2019-06-03 16:00:00 32.5 13 Noroeste 31 Oeste 0 919 -1.9 12
2019-06-03 15:00:00 32.4 10 Oeste 27 Noroeste 0 919.8 -1.4 12
2019-06-03 14:00:00 31 12 Oeste 24 Oeste 0 920.4 -1 13
2019-06-03 13:00:00 29.4 8 Oeste 21 Oeste 0 920.9 -0.4 14
2019-06-03 12:00:00 28 5 Sudoeste 18 Oeste 0 921.2 0.1 18
2019-06-03 11:00:00 26.1 6 Sudoeste 20 Sur 0 921.4 0.4 20
2019-06-03 10:00:00 25.5 4 Norte 11 Sudoeste 0 921.3 0.3 20
2019-06-03 09:00:00 21.7 3 Norte 18 Sudeste 0 921.1 0.3 27
2019-06-03 08:00:00 20.6 6 Sudeste 17 Sur 0 921 0.2 26
2019-06-03 07:00:00 19.9 7 Sudeste 20 Sudeste 0 921 0.3 26
2019-06-03 06:00:00 19.3 9 Sudeste 14 Sudeste 0 920.8 -0.1 27
2019-06-03 05:00:00 19.8 9 Sudeste 17 Sudeste 0 920.8 -0.5 27
2019-06-03 04:00:00 20.9 10 Sudeste 17 Sudeste 0 920.7 -0.2 26
2019-06-03 03:00:00 21.8 8 Sudeste 15 Sur 0 920.9 -0.1 24
2019-06-03 02:00:00 22.5 7 Noroeste 24 Sudeste 0 921.3 0.7 23
2019-06-03 01:00:00 24.3 12 Sudeste 23 Sudeste 0 920.9 1 20
2019-06-03 00:00:00 24.1 14 Este 26 Este 0 921 1.6 20
2019-06-02 23:00:00 24.6 11 Este 33 Este 0 920.6 1.4 19
2019-06-02 22:00:00 25.3 17 Sudeste 33 Este 0 919.9 0.7 18
2019-06-02 21:00:00 27 19 Este 38 Este 0 919.4 0 17
2019-06-02 20:00:00 28.8 19 Este 33 Este 0 919.2 -0.3 16
2019-06-02 19:00:00 30.4 9 Sudeste 52 Nordeste 0 919.2 -0.7 15
2019-06-02 18:00:00 31.4 12 Este 28 Sudeste 0 919.4 -1.1 14
2019-06-02 17:00:00 33.7 11 Noroeste 32 Noroeste 0 919.5 -1.8 12
2019-06-02 16:00:00 32.2 7 Sur 24 Noroeste 0 919.9 -2.1 14
2019-06-02 15:00:00 32.5 13 Norte 29 Noroeste 0 920.5 -1.6 14
2019-06-02 14:00:00 31 6 Noroeste 22 Noroeste 0 921.3 -0.9 17
2019-06-02 13:00:00 29 4 Norte 21 Sudoeste 0 922 -0.1 17
2019-06-02 12:00:00 28.1 6 Noroeste 18 Oeste 0 922.1 0.1 19
2019-06-02 11:00:00 26.2 5 Noroeste 13 Oeste 0 922.2 0.6 21
2019-06-02 10:00:00 23.4 6 Oeste 51 Sudoeste 0 922.1 0.6 30
2019-06-02 09:00:00 21.7 3 Este 8 Sudeste 0 922 0.8 30
2019-06-02 08:00:00 16.9 8 Sudeste 15 Sudeste 0 921.6 0.1 40
2019-06-02 07:00:00 16.1 9 Sudeste 17 Sur 0 921.5 -0.2 42
2019-06-02 06:00:00 16.6 6 Sudeste 12 Sudeste 0 921.2 -0.8 41
2019-06-02 05:00:00 17.3 3 Sudeste 11 Sudeste 0 921.5 -0.6 38
2019-06-02 04:00:00 18.2 5 Sudeste 11 Sudeste 0 921.7 -0.3 31
2019-06-02 03:00:00 19.2 4 Nordeste 20 Sudeste 0 922 -0.1 26
2019-06-02 02:00:00 20.9 9 Sudeste 20 Este 0 922.1 0.3 23
2019-06-02 01:00:00 21.3 6 Este 18 Este 0 922 0.7 21
2019-06-02 00:00:00 20.2 4 Este 18 Sudeste 0 922.1 0.8 22
2019-06-01 23:00:00 22.1 9 Sudeste 28 Este 0 921.8 0.8 19
2019-06-01 22:00:00 22.6 15 Sudeste 32 Sudeste 0 921.3 0.2 20
2019-06-01 21:00:00 24.4 16 Este 34 Este 0 921.3 0 18
2019-06-01 20:00:00 26.4 14 Este 36 Este 0 921 -0.7 15
2019-06-01 19:00:00 27.2 16 Este 31 Este 0 921.1 -0.9 13
2019-06-01 18:00:00 28.7 9 Sudeste 30 Sudeste 0 921.3 -1 11
2019-06-01 17:00:00 28.4 12 Sudeste 36 Este 0 921.7 -1.1 11
2019-06-01 16:00:00 28.4 12 Sudeste 30 Este 0 922 -1.3 12
2019-06-01 15:00:00 28.3 12 Sudeste 31 Este 0 922.3 -1.2 12
2019-06-01 14:00:00 26.8 14 Este 31 Este 0 922.8 -0.5 14
2019-06-01 13:00:00 26.3 15 Sudeste 35 Sudeste 0 923.3 0 14
2019-06-01 12:00:00 25.6 14 Este 33 Este 0 923.5 0.2 16
2019-06-01 11:00:00 24.7 13 Este 32 Este 0 923.3 0.1 21
2019-06-01 10:00:00 24.6 8 Este 21 Este 0 923.3 0.4 19
2019-06-01 09:00:00 22.1 0 Calma 11 Este 0 923.3 0.5 30
2019-06-01 08:00:00 15.9 6 Sudeste 11 Sudeste 0 923.2 0.4 43
2019-06-01 07:00:00 15.7 3 Sudeste 10 Este 0 922.9 0 42
2019-06-01 06:00:00 16.2 6 Este 10 Oeste 0 922.8 -0.4 39
2019-06-01 05:00:00 17.6 3 Norte 12 Este 0 922.8 -0.6 35
2019-06-01 04:00:00 19.2 3 Este 19 Este 0 922.9 -0.8 30
2019-06-01 03:00:00 19.8 5 Este 27 Este 0 923.2 -0.5 29
2019-06-01 02:00:00 20 11 Este 26 Este 0 923.4 0.1 28
2019-06-01 01:00:00 20 4 Nordeste 21 Sudeste 0 923.7 0.6 26
2019-06-01 00:00:00 20.6 5 Nordeste 31 Sudeste 0 923.7 0.9 26
2019-05-31 23:00:00 21.3 14 Este 33 Este 0 923.3 0.8 24
2019-05-31 22:00:00 21.7 15 Sudeste 36 Sudeste 0 923.1 0.5 26
2019-05-31 21:00:00 23.4 18 Este 42 Este 0 922.8 -0.1 22
2019-05-31 20:00:00 25 20 Este 39 Este 0 922.5 -0.6 20
2019-05-31 19:00:00 26.3 18 Este 44 Este 0 922.6 -0.9 18
2019-05-31 18:00:00 27.3 15 Este 34 Este 0 922.9 -1.1 15
2019-05-31 17:00:00 26.9 15 Este 38 Este 0 923.1 -1.1 17
2019-05-31 16:00:00 26.9 14 Este 38 Este 0 923.5 -1 17
2019-05-31 15:00:00 25.9 19 Este 36 Este 0 924 -0.7 20
2019-05-31 14:00:00 25.9 17 Sudeste 39 Sudeste 0 924.2 -0.4 20
2019-05-31 13:00:00 25.5 17 Sudeste 40 Sudeste 0 924.5 0.2 19
2019-05-31 12:00:00 24.5 21 Sudeste 41 Sudeste 0 924.7 0.5 17
2019-05-31 11:00:00 23.3 16 Sudeste 39 Este 0 924.6 0.2 20
2019-05-31 10:00:00 22.9 12 Este 38 Este 0 924.3 0.2 20
2019-05-31 09:00:00 21.4 11 Este 27 Sudeste 0 924.2 0.4 24
2019-05-31 08:00:00 17.1 4 Norte 12 Este 0 924.4 0.5 32
2019-05-31 07:00:00 18 3 Noroeste 21 Este 0 924.1 -0.2 30
2019-05-31 06:00:00 19 11 Este 31 Sudeste 0 923.8 -1 28
2019-05-31 05:00:00 19.3 16 Este 32 Este 0 923.9 -1.2 29
2019-05-31 04:00:00 18.9 6 Este 29 Este 0 924.3 -0.7 30
2019-05-31 03:00:00 19.1 6 Este 23 Este 0 924.8 -0.2 30
2019-05-31 02:00:00 19.7 5 Este 28 Este 0 925.1 0.1 27
2019-05-31 01:00:00 20.2 8 Este 25 Sudeste 0 925 0.5 25
2019-05-31 00:00:00 20.4 11 Este 34 Este 0 925 1 26
2019-05-30 23:00:00 20.1 11 Sudeste 23 Sudeste 0 925 1.4 32
2019-05-30 22:00:00 20.8 8 Este 30 Este 0 924.5 0.9 30
2019-05-30 21:00:00 22.8 6 Este 28 Nordeste 0 924 0.3 25
2019-05-30 20:00:00 24.6 12 Este 33 Este 0 923.6 -0.4 21
2019-05-30 19:00:00 25.6 14 Este 31 Este 0 923.6 -0.5 17
2019-05-30 18:00:00 26 16 Este 35 Este 0 923.7 -0.8 18
2019-05-30 17:00:00 26 14 Este 33 Este 0 924 -0.7 18
2019-05-30 16:00:00 25.9 15 Sudeste 31 Sudeste 0 924.1 -0.9 17
2019-05-30 15:00:00 25.6 12 Sudeste 27 Este 0 924.5 -0.7 17
2019-05-30 14:00:00 24.6 10 Sudeste 29 Este 0 924.7 -0.4 19
2019-05-30 13:00:00 24 11 Este 27 Este 0 925 0.2 21
2019-05-30 12:00:00 22.9 11 Sudeste 28 Sudeste 0 925.2 0.6 24
2019-05-30 11:00:00 21.2 12 Este 30 Este 0 925.1 0.9 28
2019-05-30 10:00:00 20 14 Este 30 Sudeste 0 924.8 0.9 30
2019-05-30 09:00:00 17.9 17 Este 32 Sudeste 0 924.6 1 36
2019-05-30 08:00:00 15.9 9 Este 17 Sudeste 0 924.2 0.7 39
2019-05-30 07:00:00 14.6 6 Sudeste 18 Sur 0 923.9 0.1 44
2019-05-30 06:00:00 14.2 4 Oeste 9 Oeste 0 923.6 -0.1 47
2019-05-30 05:00:00 15 3 Este 14 Sudeste 0 923.5 -0.3 43
2019-05-30 04:00:00 16.4 9 Sudeste 19 Sur 0 923.8 0.1 35
2019-05-30 03:00:00 15.4 4 Oeste 9 Sudoeste 0 923.7 0.1 37
2019-05-30 02:00:00 16.2 7 Oeste 13 Sudeste 0 923.8 0.7 34
2019-05-30 01:00:00 17 10 Sudeste 19 Este 0 923.7 1.3 33
2019-05-30 00:00:00 18.1 6 Este 14 Sudeste 0 923.6 1.6 28
2019-05-29 23:00:00 18.7 4 Sudoeste 16 Este 0 923.1 1.5 26
2019-05-29 22:00:00 20.4 8 Este 15 Este 0 922.4 1 23
2019-05-29 21:00:00 23.2 6 Este 18 Nordeste 0 922 0.6 18
2019-05-29 20:00:00 24.3 9 Nordeste 50 Sudeste 0 921.6 0.1 16
2019-05-29 19:00:00 26.6 10 Norte 39 Noroeste 0 921.4 -0.3 15
2019-05-29 18:00:00 27 15 Norte 37 Noroeste 0 921.4 -0.5 14
2019-05-29 17:00:00 27.4 18 Noroeste 36 Norte 0 921.5 -0.4 14
2019-05-29 16:00:00 26.9 7 Norte 34 Noroeste 0 921.7 -0.5 17
2019-05-29 15:00:00 25.9 15 Noroeste 35 Noroeste 0 921.9 -0.2 18
2019-05-29 14:00:00 25.5 17 Noroeste 32 Norte 0 921.9 -0.2 15
2019-05-29 13:00:00 24.1 14 Noroeste 32 Norte 0 922.2 0.1 21
2019-05-29 12:00:00 22.5 16 Norte 32 Norte 0 922.1 0.4 24
2019-05-29 11:00:00 21.2 15 Norte 33 Norte 0 922.1 0.8 29
2019-05-29 10:00:00 19.9 10 Norte 29 Norte 0 922.1 1.1 34
2019-05-29 09:00:00 17.4 2 Nordeste 10 Oeste 0 921.7 1.1 38
2019-05-29 08:00:00 12.3 2 Este 8 Sudeste 0 921.3 1 45
2019-05-29 07:00:00 12.7 2 Este 9 Sudeste 0 921 0.7 49
2019-05-29 06:00:00 13.2 4 Sudeste 24 Este 0 920.6 0.7 53
2019-05-29 05:00:00 13.8 9 Este 18 Este 0 920.3 0.6 47
2019-05-29 04:00:00 14.4 4 Sudeste 9 Sudeste 0 920.3 1 39
2019-05-29 03:00:00 15.3 0 Calma 17 Norte 0 919.9 0.8 37
2019-05-29 02:00:00 16.9 5 Sudeste 10 Oeste 0 919.7 0.9 28
2019-05-29 01:00:00 18.7 4 Este 26 Este 0 919.3 1.2 24
2019-05-29 00:00:00 21.5 16 Este 42 Este 0 919.1 1.5 18
2019-05-28 23:00:00 21.4 13 Nordeste 33 Este 0 918.8 1.8 19
2019-05-28 22:00:00 22.5 4 Nordeste 22 Norte 0 918.1 1.6 18
2019-05-28 21:00:00 24.4 13 Norte 31 Norte 0 917.6 1.3 18
2019-05-28 20:00:00 26.7 18 Norte 35 Noroeste 0 917 0.7 17
2019-05-28 19:00:00 28.7 16 Noroeste 34 Noroeste 0 916.5 0.2 18
2019-05-28 18:00:00 30 10 Norte 37 Oeste 0 916.3 -0.1 18
2019-05-28 17:00:00 29.1 14 Oeste 33 Noroeste 0 916.3 -0.4 20
2019-05-28 16:00:00 28.3 13 Noroeste 27 Noroeste 0 916.3 -0.5 21
2019-05-28 15:00:00 28.6 10 Noroeste 31 Noroeste 0 916.4 -0.4 21
2019-05-28 14:00:00 28.4 9 Norte 30 Noroeste 0 916.7 0 21
2019-05-28 13:00:00 28 10 Noroeste 17 Noroeste 0 916.8 0.3 21
2019-05-28 12:00:00 25.9 3 Nordeste 17 Oeste 0 916.8 0.9 23
2019-05-28 11:00:00 24.4 7 Oeste 21 Oeste 0 916.7 1 30
2019-05-28 10:00:00 23.8 4 Noroeste 9 Noroeste 0 916.5 1.2 35
2019-05-28 09:00:00 20.9 0 Calma 14 Oeste 0 915.9 0.7 45
2019-05-28 08:00:00 15.7 7 Sudeste 13 Sudeste 0 915.7 0.7 56
2019-05-28 07:00:00 15.1 6 Sudeste 14 Sudeste 0 915.3 0.4 56
2019-05-28 06:00:00 14.4 3 Noroeste 15 Norte 0 915.2 0.2 61
2019-05-28 05:00:00 16.5 4 Nordeste 14 Sudeste 0 915 0.5 49
2019-05-28 04:00:00 17.8 2 Noroeste 13 Sudeste 0 914.9 -0.3 43
2019-05-28 03:00:00 19.4 4 Sudoeste 17 Sudeste 0 915 0.1 39
2019-05-28 02:00:00 18.8 12 Sudeste 19 Sudeste 0 914.5 -0.3 40
2019-05-28 01:00:00 20.9 2 Sudeste 15 Sudeste 0 915.2 0.9 37
2019-05-28 00:00:00 21.8 5 Sur 12 Sudeste 0 914.9 0.6 32
2019-05-27 23:00:00 22.9 2 Este 14 Este 0 914.8 0.6 30
2019-05-27 22:00:00 23.5 4 Este 16 Sudoeste 0 914.3 0.2 29
2019-05-27 21:00:00 24.9 5 Sur 18 Sudoeste 0 914.3 0 26
2019-05-27 20:00:00 25.4 5 Sur 19 Sudoeste 0 914.2 -0.6 25
2019-05-27 19:00:00 26.2 5 Sur 26 Oeste 0 914.1 -1.3 23
2019-05-27 18:00:00 27.3 10 Noroeste 30 Noroeste 0 914.3 -1.5 22
2019-05-27 17:00:00 29.3 18 Noroeste 32 Noroeste 0 914.8 -1.6 19
2019-05-27 16:00:00 28 16 Noroeste 32 Noroeste 0 915.4 -1.6 22
2019-05-27 15:00:00 28.8 17 Noroeste 37 Noroeste 0 915.8 -1.4 21
2019-05-27 14:00:00 27.8 12 Noroeste 28 Noroeste 0 916.4 -1 21
2019-05-27 13:00:00 25.4 8 Sudoeste 22 Noroeste 0 917 -0.8 24
2019-05-27 12:00:00 24.5 12 Oeste 20 Oeste 0 917.2 -0.2 25
2019-05-27 11:00:00 22.9 5 Sudoeste 12 Oeste 0 917.4 0.4 27
2019-05-27 10:00:00 21.2 3 Oeste 10 Oeste 0 917.8 1 29
2019-05-27 09:00:00 19.1 3 Noroeste 8 Noroeste 0 917.4 0.6 35
2019-05-27 08:00:00 13.4 7 Sudeste 16 Sudeste 0 917 0.1 50
2019-05-27 07:00:00 13.4 7 Sudeste 16 Sudeste 0 916.8 -0.4 46
2019-05-27 06:00:00 13.7 6 Sudeste 14 Sudeste 0 916.8 -0.8 44
2019-05-27 05:00:00 14.4 6 Sudeste 10 Sudeste 0 916.9 -0.9 42
2019-05-27 04:00:00 14.6 4 Sudeste 12 Sudeste 0 917.2 -0.9 41
2019-05-27 03:00:00 15.1 4 Sudeste 12 Sudeste 0 917.6 -0.8 39
2019-05-27 02:00:00 16 2 Sur 11 Este 0 917.8 -0.4 36
2019-05-27 01:00:00 17.1 3 Sudeste 11 Sudeste 0 918.1 0.5 30
2019-05-27 00:00:00 17.4 8 Sudeste 15 Sudeste 0 918.4 0.9 30
2019-05-26 23:00:00 18.1 9 Sudeste 13 Sudeste 0 918.2 0.9 30
2019-05-26 22:00:00 20.1 2 Nordeste 19 Noroeste 0 917.6 0.2 25
2019-05-26 21:00:00 22.4 14 Noroeste 28 Noroeste 0 917.5 -0.1 21
2019-05-26 20:00:00 24.5 13 Noroeste 29 Noroeste 0 917.3 -0.6 18
2019-05-26 19:00:00 25.5 14 Noroeste 29 Noroeste 0 917.4 -0.9 17
2019-05-26 18:00:00 25.7 13 Norte 30 Noroeste 0 917.6 -1 15
2019-05-26 17:00:00 26.2 9 Noroeste 32 Norte 0 917.9 -1 16
2019-05-26 16:00:00 25.2 12 Noroeste 27 Noroeste 0 918.3 -1 19
2019-05-26 15:00:00 24.5 7 Noroeste 29 Oeste 0 918.6 -1 23
2019-05-26 14:00:00 22.9 12 Noroeste 28 Noroeste 0 918.9 -0.9 27
2019-05-26 13:00:00 22 9 Oeste 25 Noroeste 0 919.3 -0.7 34
2019-05-26 12:00:00 20.9 7 Oeste 20 Oeste 0 919.6 -0.1 36
2019-05-26 11:00:00 18.3 9 Oeste 22 Oeste 0 919.8 0 42
2019-05-26 10:00:00 18.4 11 Oeste 20 Oeste 0 920 0.9 45
2019-05-26 09:00:00 16.9 2 Oeste 6 Sudeste 0 919.7 0.7 48
2019-05-26 08:00:00 11.8 2 Sur 8 Sudoeste 0 919.8 0.7 64
2019-05-26 07:00:00 12.5 4 Sudeste 12 Sudeste 0 919.1 -0.2 60
2019-05-26 06:00:00 12.7 6 Sudeste 12 Sudeste 0 919 -0.6 59
2019-05-26 05:00:00 13.7 2 Sudeste 9 Este 0 919.1 -0.9 55
2019-05-26 04:00:00 14.7 4 Este 12 Este 0 919.3 -0.8 52
2019-05-26 03:00:00 14.3 4 Sudeste 13 Este 0 919.6 -0.5 51
2019-05-26 02:00:00 15.1 5 Sudeste 9 Sudeste 0 920 0.3 48
2019-05-26 01:00:00 15.4 4 Sudeste 10 Sur 0 920.1 0.9 48
2019-05-26 00:00:00 16.7 3 Sudoeste 23 Este 0 920.1 1.3 42